Atmore, AL

5:32 AM CDT on July 29, 2014 (GMT -0500)
B.E.C. (KALATMOR3) Elev 272 ft | 31.07 °N, 87.37 °W | Change Station

Current weather conditions updated 5 minutes ago

Clear
Clear
70.1 °F
Feels Like 70.1 °F
N
4.0
Wind Variable Wind from NW
Gusts 8.0 mph

Today is forecast to be Cooler than yesterday.

Today
High -- | Low -- °F
--% Chance of Precip.
Yesterday
High -- | Low -- °F
Precip. -- in
6:05 AM 7:47 PM
Waxing Crescent, 6% visible
Pressure 29.91 in
Visibility 10.0 miles
Clouds Clear
Dew Point 68 °F
Humidity 93%
Rainfall 0.00 in
Snow Depth Not available.
UV 0 out of 12
Pollen 4.40 out of 12
Air Quality Not available.
Flu Activity Not available.
METAR KNSE 290956Z AUTO 00000KT 10SM CLR 22/18 A2996 RMK AO2 SLP127 T02170183 $

More Conditions Fewer Conditions

Pressure 29.91 in
Visibility 10.0 miles
Clouds Clear
Dew Point 68 °F
Humidity 93%
Rainfall 0.00 in
Snow Depth Not available.
UV 0 out of 12
Pollen 4.40 out of 12
Air Quality Not available.
Flu Activity Not available.
METAR KNSE 290956Z AUTO 00000KT 10SM CLR 22/18 A2996 RMK AO2 SLP127 T02170183 $

More Conditions Fewer Conditions

10-Day Weather Forecast

Almanac

Astronomy

Jul. 29, 2014 Rise Set
Actual Time 6:05 AM CDT 7:47 PM CDT
Civil Twilight 5:38 AM CDT 8:13 PM CDT
Nautical Twilight 5:06 AM CDT 8:45 PM CDT
Astronomical Twilight 4:33 AM CDT 9:18 PM CDT
Moon 8:27 AM CDT 9:14 PM CDT
Length of Visible Light 14h 34m
Length of Day
13h 42m
Tomorrow will be 1m 20s shorter.
Waxing Crescent, 6% of the Moon is Illuminated
Today
Waxing Crescent
Aug 3
First Quarter
Aug 10
Full
Aug 17
Last Quarter
Aug 25
New

Today's Extremes

State Highs State Lows

Community

WunderPhotos

Upload Photos

1,738,683 photos uploaded!

Nearby

Snow Depth

Station Depth Elevation
No new snow has been reported.

Earthquake Activity

City Distance Mag. Time & Date
No recent earthquake activity has been reported nearby.
Minimum magnitude displayed is 2.5.

Coastal Water Temperatures

Place Temperature
Mobile State Docks, AL 84.9 °F
Coast Guard Sector Mobile, AL 84.9 °F

Nearby Weather Stations

Station Location Temp. Heat Index Dew Point Humidity Wind Precip. Elev Updated Type
MesoWest PERDIDO RIV FARMS , Atmore, AL 69 °F - 66 °F 92% NNW  at  3 mph 0.00 in / hr 298 ft 4:00 AM CDT MADIS
B.E.C., Atmore, AL 70.1 °F - 68 °F 93% NW  at  4.0 mph 0.00 in / hr 272 ft 5:27 AM CDT Normal
South Century, Upton Rd area, Century, FL 69.6 °F - 69 °F 99% North  at  0.0 mph 0.00 in / hr 131 ft 5:29 AM CDT Normal
Chalet Ridge, Bay Minette, AL 73.0 °F 71 °F 70 °F 90% North  at  0.0 mph 0.00 in / hr 285 ft 3:06 AM CDT Rapid Fire
Jenkins Farm, Jay, FL 68.6 °F - 67 °F 93% NNW  at  0.0 mph 0.00 in / hr 262 ft 6:26 AM EDT Normal
Hwy 29/Atmore Cutoff, Molino, FL 69.5 °F - 68 °F 96% NNW  at  0.0 mph 0.00 in / hr 206 ft 5:31 AM CDT Rapid Fire

Show More Stations Show Fewer Stations